createdAt,value
2022-11-05T00:00:19.943Z,8.63
2022-11-05T00:02:46.680Z,9.77
2022-11-05T00:05:13.769Z,7.50
2022-11-05T00:07:43.010Z,6.60
2022-11-05T00:10:30.495Z,8.67
2022-11-05T00:12:59.482Z,7.60
2022-11-05T00:15:26.046Z,8.77
2022-11-05T00:17:52.823Z,9.50
2022-11-05T00:20:19.413Z,9.10
2022-11-05T00:22:46.106Z,7.57
2022-11-05T00:25:13.085Z,13.03
2022-11-05T00:27:40.778Z,14.50
2022-11-05T00:30:07.818Z,7.63
2022-11-05T00:32:36.195Z,9.37
2022-11-05T00:35:02.789Z,7.30
2022-11-05T00:37:29.465Z,7.43
2022-11-05T00:39:56.052Z,7.83
2022-11-05T00:42:22.891Z,9.43
2022-11-05T00:44:49.444Z,7.43
2022-11-05T00:47:16.028Z,6.53
2022-11-05T00:49:42.684Z,6.70
2022-11-05T00:52:09.300Z,6.30
2022-11-05T00:54:35.859Z,7.07
2022-11-05T00:57:04.739Z,6.87
2022-11-05T00:59:31.785Z,7.47
2022-11-05T01:01:58.597Z,6.97
2022-11-05T01:04:25.401Z,7.67
2022-11-05T01:06:52.069Z,7.30
2022-11-05T01:09:18.617Z,7.83
2022-11-05T01:11:45.373Z,7.73
2022-11-05T01:14:15.000Z,8.37
2022-11-05T01:16:41.801Z,7.67
2022-11-05T01:19:10.284Z,8.33
2022-11-05T01:21:37.120Z,7.60
2022-11-05T01:24:04.013Z,7.70
2022-11-05T01:26:31.060Z,7.67
2022-11-05T01:28:58.916Z,8.20
2022-11-05T01:31:26.054Z,8.13
2022-11-05T01:33:52.668Z,8.13
2022-11-05T01:36:19.389Z,8.23
2022-11-05T01:38:45.978Z,8.07
2022-11-05T01:41:12.755Z,7.90
2022-11-05T01:43:54.264Z,8.50
2022-11-05T01:46:29.447Z,7.73
2022-11-05T01:49:03.396Z,8.07
2022-11-05T01:51:31.035Z,8.20
2022-11-05T01:54:06.083Z,8.10
2022-11-05T01:56:38.074Z,8.53
2022-11-05T01:59:27.559Z,8.70
2022-11-05T02:01:55.438Z,8.07
2022-11-05T02:04:32.860Z,8.50
2022-11-05T02:07:00.188Z,9.00
2022-11-05T02:09:31.868Z,8.67
2022-11-05T02:11:58.602Z,8.80
2022-11-05T02:14:25.229Z,8.73
2022-11-05T02:17:04.582Z,8.87
2022-11-05T02:19:57.499Z,8.80
2022-11-05T02:23:00.939Z,8.90
2022-11-05T02:25:42.480Z,8.97
2022-11-05T02:28:49.237Z,8.77
2022-11-05T02:31:25.092Z,9.20
2022-11-05T02:33:59.899Z,9.23
2022-11-05T02:36:51.534Z,9.53
2022-11-05T02:39:30.576Z,9.90
2022-11-05T02:42:25.957Z,10.00
2022-11-05T02:45:04.597Z,9.60
2022-11-05T02:47:52.192Z,9.77
2022-11-05T02:50:21.773Z,10.33
2022-11-05T02:52:57.426Z,10.27
2022-11-05T02:56:02.067Z,9.83
2022-11-05T02:58:29.543Z,10.03
2022-11-05T03:00:59.597Z,9.97
2022-11-05T03:03:34.630Z,10.40
2022-11-05T03:06:19.181Z,10.00
2022-11-05T03:09:04.341Z,10.50
2022-11-05T03:11:34.226Z,10.60
2022-11-05T03:14:18.931Z,9.80
2022-11-05T03:16:59.017Z,9.87
2022-11-05T03:19:37.939Z,9.73
2022-11-05T03:22:25.368Z,9.70
2022-11-05T03:24:57.619Z,9.63
2022-11-05T03:27:31.361Z,10.63
2022-11-05T03:30:10.455Z,10.00
2022-11-05T03:32:42.788Z,9.83
2022-11-05T03:35:16.462Z,9.87
2022-11-05T03:37:46.341Z,9.67
2022-11-05T03:40:18.239Z,10.60
2022-11-05T03:42:49.262Z,9.60
2022-11-05T03:45:25.550Z,9.90
2022-11-05T03:47:57.525Z,10.53
2022-11-05T03:50:40.069Z,10.67
2022-11-05T03:53:15.454Z,9.33
2022-11-05T03:55:56.775Z,11.00
2022-11-05T03:58:23.945Z,9.90
2022-11-05T04:00:51.000Z,10.80
2022-11-05T04:03:17.792Z,10.37
2022-11-05T04:05:44.730Z,11.57
2022-11-05T04:08:14.258Z,11.33
2022-11-05T04:10:41.399Z,11.60
2022-11-05T04:13:11.363Z,10.80
2022-11-05T04:15:38.279Z,11.20
2022-11-05T04:18:05.005Z,12.00
2022-11-05T04:20:31.589Z,11.83
2022-11-05T04:23:04.377Z,11.63
2022-11-05T04:25:31.040Z,12.50
2022-11-05T04:28:00.537Z,11.57
2022-11-05T04:30:27.309Z,12.40
2022-11-05T04:33:06.933Z,11.77
2022-11-05T04:35:39.643Z,12.47
2022-11-05T04:38:12.235Z,12.00
2022-11-05T04:40:39.109Z,11.87
2022-11-05T04:43:10.619Z,12.40
2022-11-05T04:45:41.944Z,11.13
2022-11-05T04:48:08.790Z,11.73
2022-11-05T04:50:35.507Z,11.50
2022-11-05T04:53:02.378Z,11.47
2022-11-05T04:55:29.436Z,11.53
2022-11-05T04:57:55.992Z,11.47
2022-11-05T05:00:23.816Z,12.03
2022-11-05T05:02:50.448Z,12.07
2022-11-05T05:05:17.540Z,12.03
2022-11-05T05:07:44.204Z,12.33
2022-11-05T05:10:11.882Z,11.83
2022-11-05T05:12:38.495Z,12.33
2022-11-05T05:15:05.858Z,11.93
2022-11-05T05:17:32.415Z,12.77
2022-11-05T05:19:59.110Z,12.80
2022-11-05T05:22:25.873Z,12.77
2022-11-05T05:24:53.000Z,13.40
2022-11-05T05:27:20.457Z,13.07
2022-11-05T05:29:47.162Z,13.73
2022-11-05T05:32:13.757Z,12.27
2022-11-05T05:34:40.436Z,12.40
2022-11-05T05:37:07.083Z,12.57
2022-11-05T05:39:33.714Z,12.73
2022-11-05T05:42:00.240Z,12.53
2022-11-05T05:44:27.107Z,13.57
2022-11-05T05:46:54.579Z,12.53
2022-11-05T05:49:21.231Z,13.67
2022-11-05T05:51:50.824Z,12.93
2022-11-05T05:54:17.465Z,13.67
2022-11-05T05:56:44.372Z,13.37
2022-11-05T05:59:12.280Z,13.10
2022-11-05T06:01:39.208Z,12.90
2022-11-05T06:04:06.012Z,13.63
2022-11-05T06:06:32.927Z,13.47
2022-11-05T06:08:59.529Z,13.87
2022-11-05T06:11:26.260Z,14.13
2022-11-05T06:13:53.052Z,14.00
2022-11-05T06:16:19.783Z,13.60
2022-11-05T06:18:46.949Z,12.83
2022-11-05T06:21:16.145Z,13.87
2022-11-05T06:23:45.001Z,14.13
2022-11-05T06:26:14.151Z,13.13
2022-11-05T06:28:41.194Z,12.93
2022-11-05T06:31:09.381Z,13.27
2022-11-05T06:33:36.109Z,13.17
2022-11-05T06:36:04.204Z,13.27
2022-11-05T06:38:36.686Z,12.83
2022-11-05T06:41:09.021Z,12.57
2022-11-05T06:43:37.539Z,12.57
2022-11-05T06:46:04.529Z,13.27
2022-11-05T06:48:31.180Z,12.63
2022-11-05T06:50:57.985Z,12.93
2022-11-05T06:53:26.412Z,12.90
2022-11-05T06:55:53.000Z,12.83
2022-11-05T06:58:19.718Z,13.60
2022-11-05T07:00:47.450Z,13.07
2022-11-05T07:03:15.322Z,13.20
2022-11-05T07:05:49.523Z,12.67
2022-11-05T07:08:17.004Z,13.33
2022-11-05T07:10:43.721Z,13.80
2022-11-05T07:13:11.044Z,14.50
2022-11-05T07:15:38.343Z,13.90
2022-11-05T07:18:06.214Z,13.53
2022-11-05T07:20:34.409Z,13.73
2022-11-05T07:23:11.823Z,13.33
2022-11-05T07:25:39.125Z,13.60
2022-11-05T07:28:05.910Z,13.47
2022-11-05T07:30:33.934Z,13.30
2022-11-05T07:33:01.006Z,13.13
2022-11-05T07:35:28.193Z,14.07
2022-11-05T07:37:55.546Z,14.03
2022-11-05T07:40:24.595Z,14.00
2022-11-05T07:42:53.330Z,14.30
2022-11-05T07:45:20.762Z,13.07
2022-11-05T07:47:49.351Z,12.93
2022-11-05T07:50:18.343Z,13.57
2022-11-05T07:52:45.053Z,14.07
2022-11-05T07:55:12.250Z,13.43
2022-11-05T07:58:08.713Z,14.03
2022-11-05T08:00:37.222Z,13.50
2022-11-05T08:03:25.275Z,12.77
2022-11-05T08:05:53.068Z,13.70
2022-11-05T08:08:20.084Z,13.77
2022-11-05T08:10:47.128Z,12.83
2022-11-05T08:13:15.168Z,13.23
2022-11-05T08:15:42.903Z,12.97
2022-11-05T08:18:15.062Z,12.27
2022-11-05T08:20:43.680Z,13.17
2022-11-05T08:23:10.962Z,12.00
2022-11-05T08:25:37.808Z,12.87
2022-11-05T08:28:07.172Z,13.30
2022-11-05T08:30:34.778Z,12.30
2022-11-05T08:33:03.965Z,13.30
2022-11-05T08:35:31.215Z,12.50
2022-11-05T08:38:02.387Z,12.67
2022-11-05T08:40:31.368Z,12.67
2022-11-05T08:42:59.424Z,12.30
2022-11-05T08:45:26.872Z,12.77
2022-11-05T08:48:22.630Z,12.40
2022-11-05T08:50:49.349Z,12.13
2022-11-05T08:53:16.667Z,11.40
2022-11-05T08:55:43.664Z,11.30
2022-11-05T08:58:15.255Z,10.67
2022-11-05T09:00:43.028Z,9.80
2022-11-05T09:03:10.600Z,9.63
2022-11-05T09:05:39.707Z,9.57
2022-11-05T09:08:11.471Z,8.87
2022-11-05T09:10:39.170Z,9.30
2022-11-05T09:13:06.092Z,8.93
2022-11-05T09:15:33.120Z,9.05
2022-11-05T09:18:00.100Z,7.68
2022-11-05T09:20:26.782Z,7.85
2022-11-05T09:22:53.567Z,7.93
2022-11-05T09:25:20.366Z,7.30
2022-11-05T09:27:46.926Z,7.90
2022-11-05T09:30:14.088Z,6.95
2022-11-05T09:32:41.517Z,6.75
2022-11-05T09:35:09.268Z,5.88
2022-11-05T09:37:37.553Z,6.07
2022-11-05T09:40:05.123Z,6.13
2022-11-05T09:42:37.774Z,6.30
2022-11-05T09:45:10.395Z,5.80
2022-11-05T09:47:42.664Z,5.85
2022-11-05T09:50:16.119Z,6.22
2022-11-05T09:52:43.018Z,5.55
2022-11-05T09:55:28.030Z,5.70
2022-11-05T09:57:59.293Z,5.13
2022-11-05T10:00:26.275Z,4.57
2022-11-05T10:02:57.990Z,4.38
2022-11-05T10:05:26.914Z,4.13
2022-11-05T10:07:58.033Z,3.38
2022-11-05T10:10:45.446Z,3.28
2022-11-05T10:13:34.950Z,3.75
2022-11-05T10:16:07.278Z,3.90
2022-11-05T10:18:41.192Z,4.00
2022-11-05T10:21:32.250Z,3.58
2022-11-05T10:23:59.273Z,3.92
2022-11-05T10:26:27.896Z,3.20
2022-11-05T10:28:55.093Z,2.75
2022-11-05T10:31:22.481Z,2.75
2022-11-05T10:33:54.402Z,3.50
2022-11-05T10:36:22.659Z,3.10
2022-11-05T10:38:50.289Z,3.20
2022-11-05T10:41:44.649Z,4.03
2022-11-05T10:44:48.365Z,3.90
2022-11-05T10:47:32.933Z,3.67
2022-11-05T10:50:04.193Z,3.35
2022-11-05T10:52:36.902Z,2.40
2022-11-05T10:55:24.917Z,3.08
2022-11-05T10:57:52.086Z,2.95
2022-11-05T11:00:24.671Z,2.40
2022-11-05T11:03:00.089Z,2.30
2022-11-05T11:05:31.289Z,2.30
2022-11-05T11:08:06.054Z,2.20
2022-11-05T11:10:41.498Z,2.35
2022-11-05T11:13:47.257Z,2.45
2022-11-05T11:16:19.652Z,2.50
2022-11-05T11:18:46.345Z,2.47
2022-11-05T11:21:18.664Z,2.30
2022-11-05T11:23:57.643Z,2.95
2022-11-05T11:26:27.968Z,2.20
2022-11-05T11:29:05.415Z,2.47
2022-11-05T11:31:36.993Z,2.30
2022-11-05T11:34:07.001Z,2.28
2022-11-05T11:36:44.674Z,1.80
2022-11-05T11:39:21.569Z,1.95
2022-11-05T11:41:58.665Z,2.25
2022-11-05T11:44:40.828Z,2.22
2022-11-05T11:47:15.679Z,1.70
2022-11-05T11:49:49.077Z,1.95
2022-11-05T11:52:36.886Z,2.10
2022-11-05T11:55:09.450Z,2.00
2022-11-05T11:57:44.168Z,1.70
2022-11-05T12:00:11.480Z,1.90
2022-11-05T12:03:02.018Z,2.53
2022-11-05T12:05:53.395Z,1.77
2022-11-05T12:08:36.250Z,1.40
2022-11-05T12:11:13.035Z,2.00
2022-11-05T12:13:54.964Z,1.60
2022-11-05T12:16:28.956Z,1.58
2022-11-05T12:19:14.044Z,1.60
2022-11-05T12:21:53.433Z,1.33
2022-11-05T12:24:29.301Z,2.47
2022-11-05T12:26:55.883Z,1.63
2022-11-05T12:29:41.616Z,1.83
2022-11-05T12:32:28.982Z,1.70
2022-11-05T12:35:14.578Z,1.70
2022-11-05T12:37:41.217Z,1.50
2022-11-05T12:40:29.190Z,1.70
2022-11-05T12:43:12.229Z,2.00
2022-11-05T12:45:41.617Z,1.70
2022-11-05T12:48:35.796Z,2.00
2022-11-05T12:51:34.168Z,5.72
2022-11-05T12:54:06.460Z,1.75
2022-11-05T12:56:44.313Z,3.58
2022-11-05T12:59:14.906Z,2.88
2022-11-05T13:01:49.051Z,2.05
2022-11-05T13:04:41.330Z,1.67
2022-11-05T13:07:13.800Z,1.38
2022-11-05T13:09:49.269Z,1.30
2022-11-05T13:12:21.333Z,1.42
2022-11-05T13:15:01.293Z,1.45
2022-11-05T13:17:54.905Z,1.42
2022-11-05T13:20:28.964Z,1.42
2022-11-05T13:23:00.494Z,1.70
2022-11-05T13:25:37.804Z,1.50
2022-11-05T13:28:16.494Z,1.77
2022-11-05T13:30:50.735Z,1.70
2022-11-05T13:33:34.468Z,3.60
2022-11-05T13:36:10.184Z,3.70
2022-11-05T13:38:38.050Z,6.70
2022-11-05T13:41:30.459Z,4.40
2022-11-05T13:44:03.076Z,2.75
2022-11-05T13:46:55.784Z,2.22
2022-11-05T13:49:31.293Z,2.03
2022-11-05T13:52:18.297Z,1.98
2022-11-05T13:54:50.822Z,1.77
2022-11-05T13:57:32.096Z,1.90
2022-11-05T14:00:11.081Z,1.83
2022-11-05T14:02:45.217Z,1.90
2022-11-05T14:05:30.061Z,2.20
2022-11-05T14:07:59.700Z,7.25
2022-11-05T14:10:41.264Z,11.52
2022-11-05T14:13:22.417Z,2.35
2022-11-05T14:16:10.354Z,2.40
2022-11-05T14:18:47.064Z,2.10
2022-11-05T14:21:25.839Z,1.83
2022-11-05T14:23:57.929Z,3.85
2022-11-05T14:26:28.730Z,5.18
2022-11-05T14:28:58.449Z,3.67
2022-11-05T14:32:08.193Z,2.97
2022-11-05T14:34:53.385Z,1.85
2022-11-05T14:37:33.559Z,2.40
2022-11-05T14:40:25.976Z,2.05
2022-11-05T14:42:58.952Z,1.60
2022-11-05T14:45:52.181Z,1.90
2022-11-05T14:48:30.933Z,1.60
2022-11-05T14:50:59.239Z,1.50
2022-11-05T14:53:33.714Z,1.83
2022-11-05T14:56:17.596Z,1.40
2022-11-05T14:58:46.084Z,1.58
2022-11-05T15:01:15.745Z,1.40
2022-11-05T15:03:46.228Z,1.67
2022-11-05T15:06:33.630Z,1.40
2022-11-05T15:09:03.090Z,1.20
2022-11-05T15:11:53.058Z,1.60
2022-11-05T15:14:30.490Z,2.00
2022-11-05T15:17:08.256Z,2.10
2022-11-05T15:19:36.535Z,2.17
2022-11-05T15:22:18.274Z,1.70
2022-11-05T15:24:44.933Z,1.75
2022-11-05T15:27:38.753Z,1.83
2022-11-05T15:30:15.394Z,1.60
2022-11-05T15:32:42.175Z,1.73
2022-11-05T15:35:20.416Z,1.52
2022-11-05T15:37:54.694Z,1.80
2022-11-05T15:40:29.904Z,2.17
2022-11-05T15:43:17.256Z,2.40
2022-11-05T15:46:17.308Z,3.00
2022-11-05T15:48:49.134Z,3.10
2022-11-05T15:51:21.313Z,3.00
2022-11-05T15:54:08.817Z,2.33
2022-11-05T15:56:40.044Z,1.88
2022-11-05T15:59:16.700Z,2.20
2022-11-05T16:01:49.672Z,1.67
2022-11-05T16:04:21.287Z,1.77
2022-11-05T16:06:52.699Z,2.00
2022-11-05T16:09:27.718Z,2.30
2022-11-05T16:12:20.468Z,2.40
2022-11-05T16:15:08.133Z,3.03
2022-11-05T16:17:37.602Z,3.60
2022-11-05T16:20:25.416Z,4.07
2022-11-05T16:22:55.400Z,5.30
2022-11-05T16:25:28.407Z,5.50
2022-11-05T16:27:57.160Z,5.23
2022-11-05T16:30:24.356Z,5.50
2022-11-05T16:32:51.527Z,6.13
2022-11-05T16:35:21.884Z,5.77
2022-11-05T16:37:52.043Z,5.20
2022-11-05T16:40:24.076Z,4.30
2022-11-05T16:42:52.739Z,4.30
2022-11-05T16:45:22.863Z,4.30
2022-11-05T16:47:49.547Z,3.70
2022-11-05T16:50:25.279Z,4.10
2022-11-05T16:52:52.802Z,4.60
2022-11-05T16:55:19.709Z,2.92
2022-11-05T16:57:53.305Z,4.20
2022-11-05T17:00:21.236Z,4.40
2022-11-05T17:02:48.342Z,4.05
2022-11-05T17:05:23.597Z,7.32
2022-11-05T17:07:50.741Z,21.38
2022-11-05T17:10:18.250Z,7.32
2022-11-05T17:12:46.097Z,5.20
2022-11-05T17:15:34.331Z,4.47
2022-11-05T17:18:02.633Z,7.10
2022-11-05T17:20:40.813Z,6.00
2022-11-05T17:23:28.121Z,5.03
2022-11-05T17:26:00.341Z,5.40
2022-11-05T17:28:27.681Z,5.15
2022-11-05T17:30:54.714Z,4.70
2022-11-05T17:33:22.857Z,4.83
2022-11-05T17:35:50.294Z,5.95
2022-11-05T17:38:17.141Z,8.50
2022-11-05T17:40:44.005Z,7.50
2022-11-05T17:43:11.265Z,7.55
2022-11-05T17:45:46.285Z,6.93
2022-11-05T17:48:14.304Z,6.97
2022-11-05T17:50:46.650Z,7.63
2022-11-05T17:53:14.875Z,6.23
2022-11-05T17:55:43.596Z,6.17
2022-11-05T17:58:11.102Z,5.70
2022-11-05T18:00:38.546Z,5.70
2022-11-05T18:03:05.340Z,5.33
2022-11-05T18:05:33.426Z,4.60
2022-11-05T18:08:00.329Z,4.00
2022-11-05T18:10:26.984Z,4.90
2022-11-05T18:12:53.775Z,4.70
2022-11-05T18:15:20.555Z,4.40
2022-11-05T18:17:47.719Z,4.60
2022-11-05T18:20:19.280Z,4.47
2022-11-05T18:22:49.784Z,4.73
2022-11-05T18:25:17.109Z,4.57
2022-11-05T18:27:44.288Z,3.90
2022-11-05T18:30:11.880Z,4.43
2022-11-05T18:32:38.888Z,4.60
2022-11-05T18:35:05.760Z,4.30
2022-11-05T18:37:32.589Z,4.47
2022-11-05T18:39:59.175Z,4.17
2022-11-05T18:42:25.856Z,4.20
2022-11-05T18:44:52.522Z,4.33
2022-11-05T18:47:19.231Z,4.68
2022-11-05T18:49:45.791Z,4.10
2022-11-05T18:52:12.737Z,4.60
2022-11-05T18:54:39.398Z,3.83
2022-11-05T18:57:06.144Z,4.10
2022-11-05T18:59:38.550Z,4.20
2022-11-05T19:02:08.328Z,4.57
2022-11-05T19:04:36.187Z,5.03
2022-11-05T19:07:05.128Z,4.90
2022-11-05T19:09:38.627Z,4.10
2022-11-05T19:12:06.575Z,4.37
2022-11-05T19:14:34.113Z,5.03
2022-11-05T19:17:01.748Z,4.13
2022-11-05T19:19:28.692Z,4.90
2022-11-05T19:21:55.449Z,4.90
2022-11-05T19:24:22.157Z,4.90
2022-11-05T19:26:48.749Z,4.60
2022-11-05T19:29:15.349Z,4.80
2022-11-05T19:31:42.142Z,4.53
2022-11-05T19:34:08.787Z,4.70
2022-11-05T19:36:35.482Z,4.77
2022-11-05T19:39:07.134Z,4.60
2022-11-05T19:41:33.802Z,43.70
2022-11-05T19:44:00.453Z,32.20
2022-11-05T19:46:28.055Z,25.93
2022-11-05T19:48:54.880Z,5.67
2022-11-05T19:51:26.696Z,9.40
2022-11-05T19:53:55.288Z,8.37
2022-11-05T19:56:24.592Z,60.37
2022-11-05T19:58:52.065Z,8.03
2022-11-05T20:01:20.123Z,8.60
2022-11-05T20:03:47.069Z,5.47
2022-11-05T20:06:25.372Z,4.40
2022-11-05T20:09:21.225Z,19.50
2022-11-05T20:11:39.244Z,5.70
2022-11-05T20:14:07.422Z,9.43
2022-11-05T20:16:35.381Z,4.87
2022-11-05T20:19:04.333Z,4.93
2022-11-05T20:21:31.283Z,4.30
2022-11-05T20:23:59.165Z,5.00
2022-11-05T20:26:27.439Z,4.63
2022-11-05T20:28:54.638Z,4.90
2022-11-05T20:31:21.735Z,4.60
2022-11-05T20:33:49.090Z,5.17
2022-11-05T20:36:21.598Z,4.97
2022-11-05T20:38:53.690Z,5.30
2022-11-05T20:41:20.475Z,5.80
2022-11-05T20:43:47.435Z,5.33
2022-11-05T20:46:21.761Z,5.90
2022-11-05T20:48:49.829Z,4.93
2022-11-05T20:51:19.314Z,4.87
2022-11-05T20:53:46.837Z,4.90
2022-11-05T20:56:18.737Z,4.87
2022-11-05T20:58:45.771Z,4.90
2022-11-05T21:01:13.409Z,5.43
2022-11-05T21:03:40.096Z,5.40
2022-11-05T21:06:07.776Z,5.47
2022-11-05T21:08:38.009Z,5.37
2022-11-05T21:11:05.996Z,4.80
2022-11-05T21:13:36.865Z,5.30
2022-11-05T21:16:07.351Z,5.20
2022-11-05T21:18:39.219Z,5.63
2022-11-05T21:21:11.978Z,5.10
2022-11-05T21:23:38.720Z,5.20
2022-11-05T21:26:06.726Z,5.13
2022-11-05T21:28:34.198Z,5.27
2022-11-05T21:31:02.627Z,5.20
2022-11-05T21:33:30.085Z,5.53
2022-11-05T21:35:57.554Z,5.30
2022-11-05T21:38:24.195Z,4.83
2022-11-05T21:40:50.995Z,5.37
2022-11-05T21:43:17.821Z,6.03
2022-11-05T21:45:45.206Z,5.73
2022-11-05T21:48:12.618Z,5.70
2022-11-05T21:50:39.792Z,4.87
2022-11-05T21:53:06.519Z,5.93
2022-11-05T21:55:33.180Z,5.33
2022-11-05T21:58:04.514Z,5.70
2022-11-05T22:00:31.239Z,6.33
2022-11-05T22:02:58.035Z,5.10
2022-11-05T22:05:24.691Z,4.93
2022-11-05T22:07:51.375Z,5.30
2022-11-05T22:10:18.355Z,5.23
2022-11-05T22:12:46.831Z,5.37
2022-11-05T22:15:13.962Z,5.87
2022-11-05T22:17:46.276Z,5.07
2022-11-05T22:20:13.898Z,5.23
2022-11-05T22:22:40.506Z,5.00
2022-11-05T22:25:07.539Z,4.93
2022-11-05T22:27:34.149Z,6.73
2022-11-05T22:30:01.121Z,6.53
2022-11-05T22:32:27.963Z,5.50
2022-11-05T22:34:54.727Z,5.40
2022-11-05T22:37:21.376Z,5.00
2022-11-05T22:39:48.468Z,5.20
2022-11-05T22:42:15.187Z,5.30
2022-11-05T22:44:41.941Z,5.23
2022-11-05T22:47:08.607Z,4.90
2022-11-05T22:49:35.385Z,5.10
2022-11-05T22:52:02.041Z,4.70
2022-11-05T22:54:28.911Z,5.00
2022-11-05T22:56:55.556Z,5.20
2022-11-05T22:59:22.265Z,4.97
2022-11-05T23:01:49.213Z,5.33
2022-11-05T23:04:16.424Z,5.33
2022-11-05T23:06:43.456Z,5.20
2022-11-05T23:09:17.588Z,5.73
2022-11-05T23:11:51.158Z,5.73
2022-11-05T23:14:17.922Z,6.13
2022-11-05T23:16:44.826Z,5.93
2022-11-05T23:19:11.930Z,5.57
2022-11-05T23:21:38.506Z,5.23
2022-11-05T23:24:05.841Z,6.13
2022-11-05T23:26:36.887Z,5.87
2022-11-05T23:29:03.774Z,5.77
2022-11-05T23:31:30.869Z,5.80
2022-11-05T23:33:57.507Z,6.07
2022-11-05T23:36:24.082Z,6.07
2022-11-05T23:38:50.956Z,5.90
2022-11-05T23:41:17.553Z,5.93
2022-11-05T23:43:44.217Z,6.33
2022-11-05T23:46:10.917Z,6.40
2022-11-05T23:48:37.797Z,6.57
2022-11-05T23:51:05.931Z,6.13
2022-11-05T23:53:34.666Z,6.63
2022-11-05T23:56:07.096Z,6.10
2022-11-05T23:58:35.191Z,6.70
